createdAt,value
2019-05-03T00:02:47.483Z,87.80
2019-05-03T00:05:49.396Z,87.90
2019-05-03T00:08:16.805Z,88.00
2019-05-03T00:10:44.178Z,88.10
2019-05-03T00:13:12.750Z,88.30
2019-05-03T00:16:12.205Z,88.70
2019-05-03T00:18:42.185Z,88.80
2019-05-03T00:21:11.616Z,88.90
2019-05-03T00:23:39.288Z,88.70
2019-05-03T00:26:06.762Z,88.80
2019-05-03T00:28:34.734Z,88.90
2019-05-03T00:31:02.215Z,90.00
2019-05-03T00:33:31.672Z,89.50
2019-05-03T00:36:16.999Z,90.20
2019-05-03T00:38:45.198Z,90.00
2019-05-03T00:41:12.829Z,90.10
2019-05-03T00:43:42.248Z,90.20
2019-05-03T00:46:09.669Z,90.50
2019-05-03T00:48:37.430Z,90.30
2019-05-03T00:51:05.059Z,90.70
2019-05-03T00:53:32.448Z,90.30
2019-05-03T00:56:01.741Z,90.40
2019-05-03T00:58:31.671Z,90.50
2019-05-03T01:00:59.180Z,90.20
2019-05-03T01:03:26.506Z,90.30
2019-05-03T01:05:53.883Z,90.60
2019-05-03T01:08:22.016Z,90.50
2019-05-03T01:10:51.515Z,90.30
2019-05-03T01:13:19.044Z,90.60
2019-05-03T01:15:53.497Z,90.90
2019-05-03T01:18:21.930Z,91.10
2019-05-03T01:20:49.461Z,91.40
2019-05-03T01:23:16.978Z,91.60
2019-05-03T01:25:45.663Z,91.70
2019-05-03T01:28:13.292Z,91.90
2019-05-03T01:30:42.473Z,92.20
2019-05-03T01:33:12.118Z,92.40
2019-05-03T01:35:39.853Z,92.10
2019-05-03T01:38:07.293Z,92.00
2019-05-03T01:40:34.779Z,91.80
2019-05-03T01:43:02.350Z,91.70
2019-05-03T01:45:31.820Z,91.50
2019-05-03T01:48:21.942Z,91.60
2019-05-03T01:51:05.155Z,91.60
2019-05-03T01:53:33.543Z,91.40
2019-05-03T01:56:03.538Z,91.50
2019-05-03T01:58:32.309Z,91.90
2019-05-03T02:01:25.274Z,91.40
2019-05-03T02:04:21.592Z,90.70
2019-05-03T02:06:49.341Z,90.00
2019-05-03T02:09:16.854Z,90.40
2019-05-03T02:11:44.528Z,90.80
2019-05-03T02:14:12.352Z,91.10
2019-05-03T02:16:42.025Z,91.00
2019-05-03T02:19:09.526Z,92.00
2019-05-03T02:21:37.327Z,91.00
2019-05-03T02:24:04.703Z,91.10
2019-05-03T02:26:32.664Z,90.90
2019-05-03T02:29:01.834Z,91.20
2019-05-03T02:31:32.528Z,91.10
2019-05-03T02:33:58.997Z,91.50
2019-05-03T02:36:26.987Z,91.70
2019-05-03T02:38:55.089Z,92.00
2019-05-03T02:41:22.787Z,91.70
2019-05-03T02:43:52.190Z,91.90
2019-05-03T02:46:29.179Z,91.50
2019-05-03T02:49:19.404Z,90.90
2019-05-03T02:51:46.916Z,91.20
2019-05-03T02:54:15.708Z,91.40
2019-05-03T02:56:45.830Z,91.50
2019-05-03T02:59:15.444Z,91.70
2019-05-03T03:01:42.119Z,91.60
2019-05-03T03:04:09.795Z,91.90
2019-05-03T03:06:40.677Z,91.80
2019-05-03T03:09:08.150Z,92.10
2019-05-03T03:11:38.269Z,91.80
2019-05-03T03:14:08.625Z,91.60
2019-05-03T03:16:37.714Z,91.50
2019-05-03T03:19:06.693Z,91.60
2019-05-03T03:21:39.413Z,91.20
2019-05-03T03:24:12.461Z,91.60
2019-05-03T03:26:43.091Z,91.40
2019-05-03T03:29:11.250Z,91.50
2019-05-03T03:32:28.394Z,92.10
2019-05-03T03:35:11.583Z,91.10
2019-05-03T03:37:36.544Z,91.30
2019-05-03T03:40:06.095Z,91.00
2019-05-03T03:42:36.038Z,91.30
2019-05-03T03:45:06.022Z,91.50
2019-05-03T03:47:37.169Z,91.60
2019-05-03T03:50:05.932Z,92.40
2019-05-03T03:52:36.066Z,92.00
2019-05-03T03:55:06.208Z,92.10
2019-05-03T03:57:35.645Z,92.50
2019-05-03T04:00:05.558Z,92.30
2019-05-03T04:02:35.351Z,92.70
2019-05-03T04:05:05.574Z,91.90
2019-05-03T04:07:35.976Z,91.90
2019-05-03T04:10:05.654Z,91.80
2019-05-03T04:12:35.223Z,91.70
2019-05-03T04:15:20.502Z,91.60
2019-05-03T04:17:58.238Z,91.70
2019-05-03T04:20:28.066Z,91.60
2019-05-03T04:23:02.161Z,91.70
2019-05-03T04:25:37.287Z,91.70
2019-05-03T04:28:05.950Z,92.00
2019-05-03T04:30:36.177Z,92.40
2019-05-03T04:33:05.937Z,91.20
2019-05-03T04:35:36.023Z,91.80
2019-05-03T04:38:05.301Z,91.90
2019-05-03T04:40:31.624Z,91.90
2019-05-03T04:43:00.844Z,91.00
2019-05-03T04:45:28.525Z,91.00
2019-05-03T04:47:56.495Z,90.80
2019-05-03T04:50:25.538Z,90.60
2019-05-03T04:52:56.372Z,90.80
2019-05-03T04:55:26.286Z,90.80
2019-05-03T04:57:55.784Z,90.40
2019-05-03T05:00:25.371Z,90.60
2019-05-03T05:02:52.027Z,90.50
2019-05-03T05:05:19.798Z,91.20
2019-05-03T05:07:47.453Z,90.50
2019-05-03T05:10:15.480Z,90.60
2019-05-03T05:12:45.546Z,90.60
2019-05-03T05:15:15.435Z,90.80
2019-05-03T05:17:59.584Z,90.80
2019-05-03T05:20:41.101Z,90.70
2019-05-03T05:23:08.580Z,90.30
2019-05-03T05:25:41.184Z,90.70
2019-05-03T05:28:20.928Z,90.60
2019-05-03T05:30:49.016Z,90.60
2019-05-03T05:33:22.363Z,90.70
2019-05-03T05:35:50.276Z,90.80
2019-05-03T05:38:17.940Z,90.80
2019-05-03T05:40:45.499Z,90.80
2019-05-03T05:43:15.221Z,90.60
2019-05-03T05:45:44.923Z,90.80
2019-05-03T05:48:15.813Z,91.00
2019-05-03T05:50:44.912Z,90.80
2019-05-03T05:53:12.564Z,91.10
2019-05-03T05:55:50.783Z,91.20
2019-05-03T05:58:46.438Z,91.10
2019-05-03T06:01:21.566Z,91.40
2019-05-03T06:03:49.136Z,91.50
2019-05-03T06:06:39.604Z,91.50
2019-05-03T06:09:29.844Z,91.60
2019-05-03T06:12:04.423Z,91.60
2019-05-03T06:14:36.620Z,91.60
2019-05-03T06:17:26.716Z,91.50
2019-05-03T06:20:10.996Z,91.40
2019-05-03T06:22:47.724Z,91.30
2019-05-03T06:25:26.852Z,91.70
2019-05-03T06:27:55.121Z,91.50
2019-05-03T06:30:51.127Z,91.20
2019-05-03T06:33:18.702Z,91.40
2019-05-03T06:35:46.261Z,91.70
2019-05-03T06:38:15.244Z,91.60
2019-05-03T06:40:44.343Z,91.20
2019-05-03T06:43:12.883Z,91.20
2019-05-03T06:45:41.164Z,91.30
2019-05-03T06:48:10.266Z,91.30
2019-05-03T06:50:37.857Z,91.10
2019-05-03T06:53:12.315Z,90.90
2019-05-03T06:55:35.180Z,90.80
2019-05-03T06:58:04.968Z,91.10
2019-05-03T07:01:04.633Z,90.50
2019-05-03T07:03:46.785Z,90.50
2019-05-03T07:06:40.460Z,90.20
2019-05-03T07:09:14.485Z,90.20
2019-05-03T07:11:42.259Z,90.00
2019-05-03T07:14:10.167Z,89.70
2019-05-03T07:16:37.531Z,89.50
2019-05-03T07:19:04.871Z,89.70
2019-05-03T07:21:32.610Z,89.00
2019-05-03T07:24:00.084Z,89.10
2019-05-03T07:26:27.719Z,88.60
2019-05-03T07:28:55.396Z,88.10
2019-05-03T07:31:25.491Z,88.10
2019-05-03T07:33:55.091Z,88.30
2019-05-03T07:36:25.283Z,88.40
2019-05-03T07:38:52.697Z,88.60
2019-05-03T07:41:20.519Z,88.70
2019-05-03T07:43:48.222Z,89.20
2019-05-03T07:46:15.561Z,89.60
2019-05-03T07:48:43.178Z,89.50
2019-05-03T07:51:11.013Z,88.80
2019-05-03T07:53:38.394Z,89.10
2019-05-03T07:56:12.031Z,88.70
2019-05-03T07:58:41.037Z,88.80
2019-05-03T08:01:25.008Z,89.10
2019-05-03T08:03:55.013Z,89.10
2019-05-03T08:06:24.552Z,89.10
2019-05-03T08:08:51.884Z,88.90
2019-05-03T08:11:19.253Z,88.90
2019-05-03T08:13:46.692Z,89.40
2019-05-03T08:16:16.079Z,89.10
2019-05-03T08:18:45.698Z,88.40
2019-05-03T08:21:14.903Z,88.60
2019-05-03T08:23:42.641Z,89.40
2019-05-03T08:26:10.083Z,88.50
2019-05-03T08:28:37.442Z,89.30
2019-05-03T08:31:45.326Z,89.30
2019-05-03T08:34:19.221Z,88.80
2019-05-03T08:37:05.185Z,88.70
2019-05-03T08:39:35.391Z,89.20
2019-05-03T08:42:05.244Z,88.70
2019-05-03T08:44:35.178Z,90.00
2019-05-03T08:47:02.742Z,89.20
2019-05-03T08:49:30.110Z,90.40
2019-05-03T08:51:57.460Z,89.60
2019-05-03T08:54:26.302Z,90.80
2019-05-03T08:56:55.581Z,90.80
2019-05-03T08:59:29.698Z,90.10
2019-05-03T09:01:54.838Z,90.00
2019-05-03T09:04:34.245Z,89.20
2019-05-03T09:06:51.627Z,88.00
2019-05-03T09:09:31.611Z,88.40
2019-05-03T09:11:59.112Z,86.50
2019-05-03T09:14:38.865Z,85.60
2019-05-03T09:16:56.314Z,85.90
2019-05-03T09:19:25.270Z,86.90
2019-05-03T09:21:54.872Z,86.90
2019-05-03T09:24:24.446Z,87.20
2019-05-03T09:26:51.686Z,86.60
2019-05-03T09:29:19.085Z,88.30
2019-05-03T09:31:46.912Z,86.90
2019-05-03T09:34:14.839Z,85.00
2019-05-03T09:36:42.375Z,84.80
2019-05-03T09:39:09.898Z,84.10
2019-05-03T09:41:37.556Z,83.10
2019-05-03T09:44:04.946Z,83.80
2019-05-03T09:46:32.347Z,85.10
2019-05-03T09:49:11.894Z,84.10
2019-05-03T09:51:29.626Z,82.50
2019-05-03T09:54:05.220Z,81.70
2019-05-03T09:56:57.579Z,82.40
2019-05-03T09:59:20.447Z,87.30
2019-05-03T10:01:47.988Z,87.30
2019-05-03T10:04:17.961Z,85.50
2019-05-03T10:06:45.346Z,84.40
2019-05-03T10:09:15.205Z,86.70
2019-05-03T10:11:45.560Z,84.40
2019-05-03T10:14:12.097Z,87.60
2019-05-03T10:16:44.952Z,85.00
2019-05-03T10:19:14.365Z,83.60
2019-05-03T10:21:45.212Z,80.80
2019-05-03T10:24:12.979Z,84.70
2019-05-03T10:26:40.642Z,82.80
2019-05-03T10:29:08.196Z,83.80
2019-05-03T10:31:54.495Z,82.80
2019-05-03T10:34:22.167Z,82.10
2019-05-03T10:36:49.631Z,78.10
2019-05-03T10:39:17.772Z,81.20
2019-05-03T10:41:45.472Z,77.90
2019-05-03T10:44:15.061Z,85.30
2019-05-03T10:46:42.524Z,83.90
2019-05-03T10:49:10.006Z,73.40
2019-05-03T10:51:42.624Z,74.50
2019-05-03T10:54:10.399Z,70.60
2019-05-03T10:56:52.873Z,66.00
2019-05-03T10:59:22.290Z,67.50
2019-05-03T11:02:08.301Z,75.20
2019-05-03T11:04:35.856Z,67.70
2019-05-03T11:07:05.495Z,70.50
2019-05-03T11:09:48.111Z,71.60
2019-05-03T11:12:05.422Z,63.30
2019-05-03T11:14:35.059Z,64.10
2019-05-03T11:17:05.510Z,70.40
2019-05-03T11:19:34.680Z,64.30
2019-05-03T11:22:02.315Z,62.90
2019-05-03T11:24:30.431Z,65.70
2019-05-03T11:27:00.196Z,69.40
2019-05-03T11:29:27.973Z,63.10
2019-05-03T11:32:25.483Z,63.30
2019-05-03T11:35:04.562Z,66.90
2019-05-03T11:37:45.552Z,66.60
2019-05-03T11:40:13.158Z,60.40
2019-05-03T11:42:40.667Z,60.00
2019-05-03T11:45:08.932Z,60.90
2019-05-03T11:47:36.343Z,60.90
2019-05-03T11:50:04.240Z,56.70
2019-05-03T11:52:31.619Z,58.80
2019-05-03T11:54:59.105Z,64.70
2019-05-03T11:57:27.346Z,60.60
2019-05-03T11:59:55.881Z,55.70
2019-05-03T12:02:55.612Z,63.70
2019-05-03T12:05:25.488Z,58.90
2019-05-03T12:07:54.664Z,67.40
2019-05-03T12:10:43.632Z,59.70
2019-05-03T12:12:58.344Z,56.00
2019-05-03T12:15:25.833Z,56.90
2019-05-03T12:17:58.836Z,58.40
2019-05-03T12:20:28.731Z,53.80
2019-05-03T12:22:55.292Z,52.10
2019-05-03T12:25:25.727Z,55.80
2019-05-03T12:27:52.661Z,53.50
2019-05-03T12:30:24.756Z,53.90
2019-05-03T12:32:50.764Z,52.90
2019-05-03T12:35:18.550Z,53.90
2019-05-03T12:37:46.547Z,54.70
2019-05-03T12:40:14.920Z,55.20
2019-05-03T12:42:45.258Z,57.70
2019-05-03T12:45:12.426Z,54.70
2019-05-03T12:47:40.136Z,50.80
2019-05-03T12:50:08.042Z,51.80
2019-05-03T12:52:49.256Z,52.90
2019-05-03T12:55:05.094Z,53.40
2019-05-03T12:57:34.474Z,54.80
2019-05-03T13:00:25.121Z,57.00
2019-05-03T13:03:15.652Z,54.50
2019-05-03T13:05:45.002Z,55.10
2019-05-03T13:08:35.548Z,54.00
2019-05-03T13:11:05.271Z,54.40
2019-05-03T13:13:33.158Z,56.60
2019-05-03T13:16:00.687Z,53.80
2019-05-03T13:18:28.567Z,53.40
2019-05-03T13:20:56.333Z,53.30
2019-05-03T13:23:25.382Z,54.00
2019-05-03T13:25:54.839Z,54.40
2019-05-03T13:28:22.425Z,55.40
2019-05-03T13:30:49.886Z,53.80
2019-05-03T13:33:17.352Z,53.80
2019-05-03T13:35:45.321Z,54.00
2019-05-03T13:38:12.853Z,54.30
2019-05-03T13:40:40.454Z,59.20
2019-05-03T13:43:07.937Z,56.90
2019-05-03T13:45:35.647Z,55.40
2019-05-03T13:48:04.969Z,58.50
2019-05-03T13:50:35.003Z,59.90
2019-05-03T13:53:02.261Z,55.80
2019-05-03T13:55:30.077Z,55.10
2019-05-03T13:57:58.128Z,58.30
2019-05-03T14:00:25.886Z,54.90
2019-05-03T14:02:56.352Z,55.00
2019-05-03T14:05:24.589Z,55.90
2019-05-03T14:07:53.206Z,55.00
2019-05-03T14:13:19.282Z,57.70
2019-05-03T14:15:46.603Z,55.80
2019-05-03T14:18:15.295Z,59.10
2019-05-03T14:21:05.143Z,55.70
2019-05-03T14:23:52.558Z,55.30
2019-05-03T14:26:20.422Z,57.80
2019-05-03T14:28:47.852Z,57.90
2019-05-03T14:31:15.310Z,57.90
2019-05-03T14:33:44.765Z,57.90
2019-05-03T14:36:11.887Z,58.50
2019-05-03T14:38:39.708Z,58.10
2019-05-03T14:41:07.395Z,57.30
2019-05-03T14:43:35.495Z,59.30
2019-05-03T14:46:03.200Z,60.00
2019-05-03T14:48:30.714Z,57.80
2019-05-03T14:50:58.328Z,58.00
2019-05-03T14:53:27.036Z,58.50
2019-05-03T14:56:00.485Z,56.30
2019-05-03T14:58:46.203Z,57.20
2019-05-03T15:01:21.879Z,59.50
2019-05-03T15:03:49.684Z,58.70
2019-05-03T15:06:17.827Z,57.60
2019-05-03T15:08:46.525Z,58.10
2019-05-03T15:11:14.912Z,60.10
2019-05-03T15:13:42.764Z,59.30
2019-05-03T15:16:10.448Z,60.70
2019-05-03T15:18:38.191Z,58.80
2019-05-03T15:21:05.853Z,57.40
2019-05-03T15:23:34.720Z,60.20
2019-05-03T15:26:02.657Z,58.40
2019-05-03T15:28:30.454Z,56.00
2019-05-03T15:30:57.934Z,55.80
2019-05-03T15:33:25.392Z,57.20
2019-05-03T15:35:55.129Z,55.80
2019-05-03T15:38:23.969Z,55.50
2019-05-03T15:40:54.726Z,55.50
2019-05-03T15:43:39.309Z,55.70
2019-05-03T15:46:19.276Z,56.70
2019-05-03T15:48:49.596Z,55.90
2019-05-03T15:51:17.463Z,59.60
2019-05-03T15:53:44.945Z,57.10
2019-05-03T15:56:12.324Z,57.50
2019-05-03T15:58:40.183Z,58.70
2019-05-03T16:01:07.663Z,57.40
2019-05-03T16:03:35.722Z,58.10
2019-05-03T16:06:04.916Z,58.40
2019-05-03T16:08:33.840Z,58.80
2019-05-03T16:11:01.788Z,57.90
2019-05-03T16:13:29.424Z,60.80
2019-05-03T16:15:56.966Z,57.70
2019-05-03T16:18:24.701Z,55.80
2019-05-03T16:20:54.372Z,54.90
2019-05-03T16:23:21.660Z,56.40
2019-05-03T16:25:49.292Z,56.40
2019-05-03T16:28:39.059Z,56.20
2019-05-03T16:31:09.364Z,56.20
2019-05-03T16:33:37.175Z,58.40
2019-05-03T16:36:05.500Z,59.40
2019-05-03T16:38:35.271Z,59.30
2019-05-03T16:41:02.503Z,58.80
2019-05-03T16:43:30.096Z,59.40
2019-05-03T16:45:57.599Z,58.90
2019-05-03T16:48:25.330Z,59.00
2019-05-03T16:50:52.684Z,59.00
2019-05-03T16:53:20.313Z,58.40
2019-05-03T16:55:47.786Z,58.80
2019-05-03T16:58:16.958Z,57.80
2019-05-03T17:00:44.781Z,57.50
2019-05-03T17:03:12.292Z,57.40
2019-05-03T17:05:57.877Z,55.90
2019-05-03T17:08:36.235Z,56.30
2019-05-03T17:11:06.378Z,55.90
2019-05-03T17:13:34.634Z,57.00
2019-05-03T17:16:02.360Z,58.60
2019-05-03T17:18:30.959Z,58.30
2019-05-03T17:20:59.807Z,56.50
2019-05-03T17:23:27.282Z,55.90
2019-05-03T17:25:55.093Z,56.40
2019-05-03T17:28:22.463Z,56.90
2019-05-03T17:30:49.965Z,57.00
2019-05-03T17:33:17.358Z,53.00
2019-05-03T17:35:45.140Z,55.10
2019-05-03T17:38:13.004Z,57.70
2019-05-03T17:40:49.089Z,58.80
2019-05-03T17:43:25.430Z,59.50
2019-05-03T17:45:55.014Z,59.70
2019-05-03T17:48:22.470Z,60.70
2019-05-03T17:50:50.241Z,61.50
2019-05-03T17:53:51.862Z,61.60
2019-05-03T17:56:38.932Z,62.30
2019-05-03T17:59:10.270Z,62.60
2019-05-03T18:02:04.847Z,63.30
2019-05-03T18:04:51.981Z,63.40
2019-05-03T18:07:41.884Z,63.80
2019-05-03T18:10:10.233Z,63.50
2019-05-03T18:12:37.966Z,63.80
2019-05-03T18:15:05.912Z,64.20
2019-05-03T18:17:35.123Z,63.80
2019-05-03T18:20:04.486Z,63.80
2019-05-03T18:22:32.294Z,64.30
2019-05-03T18:25:00.100Z,64.20
2019-05-03T18:27:27.646Z,65.80
2019-05-03T18:29:55.479Z,66.00
2019-05-03T18:32:25.038Z,66.50
2019-05-03T18:34:54.590Z,66.80
2019-05-03T18:37:24.507Z,67.40
2019-05-03T18:39:54.501Z,68.90
2019-05-03T18:42:30.788Z,70.60
2019-05-03T18:45:00.645Z,73.90
2019-05-03T18:47:28.088Z,73.50
2019-05-03T18:49:55.862Z,76.10
2019-05-03T18:52:23.398Z,73.50
2019-05-03T18:54:51.697Z,77.30
2019-05-03T18:57:19.203Z,78.70
2019-05-03T18:59:46.836Z,80.30
2019-05-03T19:02:14.952Z,79.50
2019-05-03T19:04:50.038Z,79.30
2019-05-03T19:07:35.734Z,78.70
2019-05-03T19:10:18.624Z,77.80
2019-05-03T19:12:58.728Z,79.70
2019-05-03T19:15:26.376Z,80.10
2019-05-03T19:17:59.238Z,80.80
2019-05-03T19:20:26.988Z,80.80
2019-05-03T19:22:54.542Z,81.00
2019-05-03T19:25:22.184Z,80.60
2019-05-03T19:27:50.276Z,81.20
2019-05-03T19:30:18.497Z,81.80
2019-05-03T19:32:46.554Z,81.40
2019-05-03T19:35:15.538Z,80.80
2019-05-03T19:37:46.390Z,80.70
2019-05-03T19:40:13.174Z,80.80
2019-05-03T19:42:40.641Z,82.30
2019-05-03T19:45:08.483Z,80.60
2019-05-03T19:47:36.390Z,81.10
2019-05-03T19:50:05.106Z,80.70
2019-05-03T19:52:36.962Z,80.50
2019-05-03T19:55:05.119Z,81.00
2019-05-03T19:57:37.074Z,80.70
2019-05-03T20:00:05.803Z,81.40
2019-05-03T20:02:54.406Z,81.80
2019-05-03T20:05:37.705Z,81.60
2019-05-03T20:08:12.487Z,80.90
2019-05-03T20:10:40.265Z,81.70
2019-05-03T20:13:08.600Z,81.50
2019-05-03T20:15:37.292Z,81.40
2019-05-03T20:18:04.959Z,81.60
2019-05-03T20:20:32.475Z,81.70
2019-05-03T20:23:00.717Z,81.60
2019-05-03T20:25:28.208Z,81.90
2019-05-03T20:27:55.971Z,82.00
2019-05-03T20:30:25.349Z,80.90
2019-05-03T20:32:55.421Z,81.00
2019-05-03T20:35:24.947Z,81.30
2019-05-03T20:37:52.322Z,81.10
2019-05-03T20:40:19.732Z,81.40
2019-05-03T20:43:12.807Z,81.60
2019-05-03T20:46:19.684Z,82.30
2019-05-03T20:48:49.941Z,81.90
2019-05-03T20:51:18.080Z,82.00
2019-05-03T20:53:45.850Z,81.50
2019-05-03T20:56:15.318Z,82.80
2019-05-03T20:58:44.673Z,81.90
2019-05-03T21:01:12.454Z,81.70
2019-05-03T21:03:39.935Z,81.90
2019-05-03T21:06:07.403Z,82.30
2019-05-03T21:08:34.890Z,82.00
2019-05-03T21:11:02.278Z,81.70
2019-05-03T21:13:48.744Z,81.40
2019-05-03T21:17:14.780Z,81.50
2019-05-03T21:20:06.301Z,81.50
2019-05-03T21:22:54.772Z,82.20
2019-05-03T21:26:04.488Z,81.90
2019-05-03T21:28:34.554Z,82.80
2019-05-03T21:31:02.371Z,82.40
2019-05-03T21:33:29.781Z,82.60
2019-05-03T21:35:57.500Z,82.10
2019-05-03T21:38:25.132Z,82.10
2019-05-03T21:40:54.535Z,81.50
2019-05-03T21:43:21.928Z,80.90
2019-05-03T21:45:54.503Z,81.40
2019-05-03T21:48:26.362Z,80.90
2019-05-03T21:50:53.716Z,80.60
2019-05-03T21:53:21.225Z,80.70
2019-05-03T21:55:48.588Z,80.40
2019-05-03T21:58:16.596Z,80.60
2019-05-03T22:00:54.684Z,80.60
2019-05-03T22:03:25.089Z,80.10
2019-05-03T22:05:57.397Z,80.90
2019-05-03T22:08:24.696Z,80.90
2019-05-03T22:10:52.300Z,81.40
2019-05-03T22:13:19.672Z,81.60
2019-05-03T22:15:52.136Z,81.90
2019-05-03T22:18:24.861Z,82.00
2019-05-03T22:21:24.271Z,81.70
2019-05-03T22:23:59.145Z,82.00
2019-05-03T22:26:45.379Z,82.10
2019-05-03T22:29:14.430Z,82.80
2019-05-03T22:31:45.229Z,82.80
2019-05-03T22:34:12.677Z,83.00
2019-05-03T22:36:40.188Z,82.70
2019-05-03T22:39:27.258Z,83.20
2019-05-03T22:41:54.623Z,83.60
2019-05-03T22:44:22.131Z,83.80
2019-05-03T22:46:49.946Z,83.70
2019-05-03T22:49:17.830Z,83.90
2019-05-03T22:51:46.381Z,83.10
2019-05-03T22:54:15.387Z,82.60
2019-05-03T22:56:44.756Z,82.20
2019-05-03T22:59:14.518Z,81.60
2019-05-03T23:01:42.695Z,81.10
2019-05-03T23:04:10.189Z,81.40
2019-05-03T23:06:38.000Z,80.80
2019-05-03T23:09:06.263Z,81.20
2019-05-03T23:11:35.348Z,81.40
2019-05-03T23:14:04.981Z,82.00
2019-05-03T23:16:33.078Z,82.00
2019-05-03T23:19:01.133Z,81.80
2019-05-03T23:21:33.859Z,81.10
2019-05-03T23:24:01.258Z,81.00
2019-05-03T23:26:29.164Z,81.00
2019-05-03T23:28:56.705Z,81.50
2019-05-03T23:31:25.161Z,81.40
2019-05-03T23:33:54.452Z,80.80
2019-05-03T23:36:32.796Z,80.90
2019-05-03T23:38:52.075Z,81.70
2019-05-03T23:41:19.641Z,80.60
2019-05-03T23:43:47.433Z,80.60
2019-05-03T23:46:16.726Z,80.20
2019-05-03T23:48:44.800Z,79.70
2019-05-03T23:51:32.531Z,79.20
2019-05-03T23:53:59.964Z,79.80
2019-05-03T23:56:27.392Z,80.00
2019-05-03T23:58:55.134Z,80.40
